createdAt,value
2023-01-25T00:02:09.868Z,19.57
2023-01-25T00:04:36.965Z,17.27
2023-01-25T00:07:04.058Z,16.37
2023-01-25T00:09:31.118Z,17.50
2023-01-25T00:11:58.231Z,16.87
2023-01-25T00:14:25.459Z,17.10
2023-01-25T00:16:52.517Z,18.03
2023-01-25T00:19:19.743Z,17.87
2023-01-25T00:21:47.053Z,16.20
2023-01-25T00:24:14.493Z,16.57
2023-01-25T00:26:43.854Z,16.50
2023-01-25T00:29:13.235Z,16.57
2023-01-25T00:31:49.196Z,15.37
2023-01-25T00:34:25.206Z,18.50
2023-01-25T00:36:57.729Z,21.30
2023-01-25T00:39:26.859Z,16.47
2023-01-25T00:41:53.994Z,17.47
2023-01-25T00:44:20.820Z,17.07
2023-01-25T00:46:48.016Z,17.53
2023-01-25T00:49:22.117Z,16.03
2023-01-25T00:51:49.536Z,17.07
2023-01-25T00:54:16.642Z,14.97
2023-01-25T00:56:43.759Z,18.00
2023-01-25T00:59:11.109Z,15.97
2023-01-25T01:01:38.533Z,16.07
2023-01-25T01:04:06.588Z,16.47
2023-01-25T01:06:35.905Z,16.57
2023-01-25T01:09:03.172Z,17.03
2023-01-25T01:11:31.452Z,13.20
2023-01-25T01:13:59.599Z,16.63
2023-01-25T01:16:26.920Z,15.33
2023-01-25T01:18:54.311Z,17.07
2023-01-25T01:21:21.825Z,17.30
2023-01-25T01:23:48.939Z,16.80
2023-01-25T01:26:19.260Z,16.83
2023-01-25T01:28:46.475Z,17.50
2023-01-25T01:31:19.149Z,17.47
2023-01-25T01:33:53.393Z,16.27
2023-01-25T01:36:21.849Z,17.23
2023-01-25T01:38:49.131Z,17.00
2023-01-25T01:41:16.491Z,15.90
2023-01-25T01:43:43.907Z,17.53
2023-01-25T01:46:34.465Z,17.13
2023-01-25T01:49:16.460Z,17.97
2023-01-25T01:52:07.366Z,17.67
2023-01-25T01:54:39.107Z,18.00
2023-01-25T01:57:44.752Z,17.67
2023-01-25T02:00:23.200Z,16.10
2023-01-25T02:02:51.402Z,16.30
2023-01-25T02:05:25.924Z,13.03
2023-01-25T02:07:55.031Z,17.87
2023-01-25T02:10:23.430Z,15.93
2023-01-25T02:12:50.608Z,16.80
2023-01-25T02:15:17.271Z,15.77
2023-01-25T02:17:44.070Z,17.83
2023-01-25T02:20:19.556Z,17.20
2023-01-25T02:22:53.261Z,18.73
2023-01-25T02:25:20.225Z,17.00
2023-01-25T02:27:53.801Z,19.97
2023-01-25T02:30:20.861Z,16.63
2023-01-25T02:32:47.974Z,21.47
2023-01-25T02:35:21.964Z,18.53
2023-01-25T02:37:49.768Z,17.60
2023-01-25T02:40:18.279Z,18.73
2023-01-25T02:42:45.829Z,17.70
2023-01-25T02:45:17.692Z,17.40
2023-01-25T02:47:44.790Z,16.53
2023-01-25T02:50:14.267Z,17.67
2023-01-25T02:52:42.109Z,17.07
2023-01-25T02:55:09.781Z,18.60
2023-01-25T02:57:36.631Z,17.87
2023-01-25T03:00:05.697Z,17.40
2023-01-25T03:02:32.688Z,19.30
2023-01-25T03:04:59.788Z,18.50
2023-01-25T03:07:26.971Z,19.43
2023-01-25T03:09:54.013Z,17.50
2023-01-25T03:12:21.145Z,18.73
2023-01-25T03:14:48.211Z,18.17
2023-01-25T03:17:15.323Z,19.90
2023-01-25T03:19:41.990Z,16.27
2023-01-25T03:22:09.645Z,14.63
2023-01-25T03:24:36.805Z,16.10
2023-01-25T03:27:18.315Z,17.07
2023-01-25T03:29:45.647Z,16.57
2023-01-25T03:32:12.741Z,16.73
2023-01-25T03:34:39.825Z,16.63
2023-01-25T03:37:06.885Z,18.67
2023-01-25T03:39:34.001Z,17.60
2023-01-25T03:42:01.079Z,17.13
2023-01-25T03:44:28.162Z,19.07
2023-01-25T03:46:54.862Z,17.73
2023-01-25T03:49:21.548Z,19.53
2023-01-25T03:51:48.707Z,18.77
2023-01-25T03:54:15.742Z,19.50
2023-01-25T03:56:42.897Z,17.50
2023-01-25T03:59:11.320Z,18.87
2023-01-25T04:01:38.159Z,18.80
2023-01-25T04:04:05.217Z,15.40
2023-01-25T04:06:32.278Z,17.07
2023-01-25T04:08:59.368Z,17.50
2023-01-25T04:11:26.115Z,17.53
2023-01-25T04:13:52.767Z,16.97
2023-01-25T04:16:19.895Z,19.87
2023-01-25T04:18:46.764Z,18.57
2023-01-25T04:21:13.840Z,19.70
2023-01-25T04:23:40.569Z,19.30
2023-01-25T04:26:09.300Z,17.17
2023-01-25T04:28:36.326Z,20.37
2023-01-25T04:31:03.658Z,17.80
2023-01-25T04:33:30.917Z,17.80
2023-01-25T04:35:57.806Z,16.97
2023-01-25T04:38:25.379Z,18.77
2023-01-25T04:40:52.627Z,17.50
2023-01-25T04:43:20.491Z,20.50
2023-01-25T04:45:47.350Z,19.53
2023-01-25T04:48:15.168Z,19.23
2023-01-25T04:50:43.256Z,17.57
2023-01-25T04:53:11.849Z,17.63
2023-01-25T04:55:38.939Z,17.27
2023-01-25T04:58:06.203Z,19.97
2023-01-25T05:00:33.379Z,19.73
2023-01-25T05:03:00.502Z,20.47
2023-01-25T05:05:27.194Z,18.70
2023-01-25T05:07:54.298Z,19.17
2023-01-25T05:10:21.413Z,20.73
2023-01-25T05:12:48.538Z,18.70
2023-01-25T05:15:15.770Z,20.10
2023-01-25T05:17:42.862Z,20.23
2023-01-25T05:20:10.551Z,21.17
2023-01-25T05:22:37.839Z,20.67
2023-01-25T05:25:06.373Z,22.67
2023-01-25T05:27:33.481Z,19.13
2023-01-25T05:30:00.267Z,21.30
2023-01-25T05:32:27.671Z,19.47
2023-01-25T05:34:54.300Z,20.17
2023-01-25T05:37:21.608Z,18.80
2023-01-25T05:39:48.396Z,22.87
2023-01-25T05:42:17.840Z,20.07
2023-01-25T05:44:47.354Z,19.60
2023-01-25T05:47:16.242Z,17.57
2023-01-25T05:49:43.476Z,17.87
2023-01-25T05:52:14.835Z,17.77
2023-01-25T05:54:41.726Z,20.50
2023-01-25T05:57:08.831Z,16.90
2023-01-25T05:59:35.919Z,20.43
2023-01-25T06:02:02.691Z,21.70
2023-01-25T06:04:29.859Z,19.00
2023-01-25T06:06:56.755Z,19.00
2023-01-25T06:09:24.104Z,19.90
2023-01-25T06:11:51.258Z,19.63
2023-01-25T06:14:18.151Z,21.80
2023-01-25T06:16:45.236Z,22.50
2023-01-25T06:19:13.996Z,20.27
2023-01-25T06:21:41.184Z,21.03
2023-01-25T06:24:08.590Z,20.17
2023-01-25T06:26:35.855Z,20.27
2023-01-25T06:29:05.501Z,20.23
2023-01-25T06:31:32.816Z,21.83
2023-01-25T06:34:04.302Z,22.93
2023-01-25T06:36:30.944Z,19.37
2023-01-25T06:38:58.097Z,18.70
2023-01-25T06:41:24.749Z,20.23
2023-01-25T06:43:51.777Z,18.57
2023-01-25T06:46:19.050Z,16.87
2023-01-25T06:48:45.747Z,16.43
2023-01-25T06:51:14.013Z,18.73
2023-01-25T06:53:43.408Z,19.10
2023-01-25T06:56:19.277Z,19.90
2023-01-25T06:58:46.317Z,19.67
2023-01-25T07:01:14.850Z,17.57
2023-01-25T07:03:42.063Z,22.57
2023-01-25T07:06:10.648Z,21.37
2023-01-25T07:08:38.028Z,19.27
2023-01-25T07:11:06.889Z,20.07
2023-01-25T07:13:34.569Z,19.17
2023-01-25T07:16:04.311Z,21.43
2023-01-25T07:18:32.017Z,20.93
2023-01-25T07:21:07.559Z,20.93
2023-01-25T07:23:34.648Z,20.13
2023-01-25T07:26:01.794Z,18.50
2023-01-25T07:28:29.241Z,20.57
2023-01-25T07:30:57.011Z,22.47
2023-01-25T07:33:23.851Z,23.50
2023-01-25T07:35:51.053Z,21.90
2023-01-25T07:38:17.869Z,20.60
2023-01-25T07:40:45.005Z,20.30
2023-01-25T07:43:12.101Z,21.93
2023-01-25T07:45:39.199Z,19.37
2023-01-25T07:48:10.848Z,20.80
2023-01-25T07:50:37.519Z,22.07
2023-01-25T07:53:04.224Z,21.83
2023-01-25T07:55:31.159Z,20.90
2023-01-25T07:57:57.821Z,23.53
2023-01-25T08:00:25.133Z,21.30
2023-01-25T08:02:52.743Z,22.33
2023-01-25T08:05:19.758Z,21.10
2023-01-25T08:07:47.108Z,21.03
2023-01-25T08:10:14.372Z,20.93
2023-01-25T08:12:45.606Z,21.93
2023-01-25T08:15:13.670Z,23.13
2023-01-25T08:17:40.861Z,22.63
2023-01-25T08:20:08.875Z,23.67
2023-01-25T08:22:35.728Z,22.90
2023-01-25T08:25:03.518Z,23.10
2023-01-25T08:27:30.162Z,24.03
2023-01-25T08:29:57.252Z,22.20
2023-01-25T08:32:24.329Z,26.17
2023-01-25T08:34:51.430Z,24.93
2023-01-25T08:37:18.175Z,26.87
2023-01-25T08:39:44.847Z,26.03
2023-01-25T08:42:11.922Z,24.87
2023-01-25T08:44:38.995Z,28.27
2023-01-25T08:47:06.162Z,25.47
2023-01-25T08:49:34.492Z,26.23
2023-01-25T08:52:01.396Z,27.30
2023-01-25T08:54:28.724Z,28.00
2023-01-25T08:56:55.655Z,27.73
2023-01-25T08:59:22.907Z,25.53
2023-01-25T09:01:50.107Z,24.10
2023-01-25T09:04:17.172Z,25.27
2023-01-25T09:06:44.617Z,26.97
2023-01-25T09:09:13.104Z,26.57
2023-01-25T09:11:40.957Z,25.03
2023-01-25T09:14:08.165Z,27.77
2023-01-25T09:16:35.616Z,25.23
2023-01-25T09:19:05.531Z,27.20
2023-01-25T09:21:34.141Z,24.53
2023-01-25T09:24:06.359Z,27.93
2023-01-25T09:26:39.942Z,26.27
2023-01-25T09:29:08.093Z,25.37
2023-01-25T09:31:35.864Z,24.63
2023-01-25T09:34:03.694Z,30.50
2023-01-25T09:36:30.822Z,25.87
2023-01-25T09:38:58.082Z,25.73
2023-01-25T09:41:33.347Z,25.07
2023-01-25T09:44:43.544Z,23.23
2023-01-25T09:47:48.841Z,25.93
2023-01-25T09:50:35.787Z,26.37
2023-01-25T09:53:20.664Z,31.43
2023-01-25T09:55:59.551Z,25.97
2023-01-25T09:58:40.350Z,26.57
2023-01-25T10:01:14.585Z,25.97
2023-01-25T10:03:59.846Z,26.43
2023-01-25T10:06:40.646Z,28.67
2023-01-25T10:09:28.423Z,28.97
2023-01-25T10:11:55.591Z,28.20
2023-01-25T10:14:22.389Z,28.83
2023-01-25T10:16:50.158Z,26.53
2023-01-25T10:19:27.851Z,25.90
2023-01-25T10:22:00.938Z,28.43
2023-01-25T10:25:07.409Z,26.87
2023-01-25T10:27:58.355Z,28.10
2023-01-25T10:30:42.881Z,27.63
2023-01-25T10:33:15.751Z,27.73
2023-01-25T10:35:47.236Z,26.43
2023-01-25T10:38:24.950Z,30.00
2023-01-25T10:41:06.440Z,28.40
2023-01-25T10:43:33.192Z,27.70
2023-01-25T10:45:59.890Z,28.03
2023-01-25T10:48:35.251Z,27.57
2023-01-25T10:51:02.001Z,30.43
2023-01-25T10:53:35.423Z,30.70
2023-01-25T10:56:11.078Z,31.37
2023-01-25T10:58:42.527Z,32.00
2023-01-25T11:01:13.619Z,30.17
2023-01-25T11:03:44.808Z,30.73
2023-01-25T11:06:11.898Z,31.50
2023-01-25T11:08:39.033Z,30.07
2023-01-25T11:11:44.852Z,29.33
2023-01-25T11:14:18.380Z,36.87
2023-01-25T11:16:50.586Z,32.17
2023-01-25T11:19:32.345Z,29.37
2023-01-25T11:22:00.562Z,29.93
2023-01-25T11:24:33.745Z,27.80
2023-01-25T11:27:20.617Z,29.87
2023-01-25T11:30:10.271Z,31.97
2023-01-25T11:32:39.641Z,31.83
2023-01-25T11:35:16.515Z,32.67
2023-01-25T11:37:49.010Z,30.70
2023-01-25T11:40:18.679Z,33.53
2023-01-25T11:42:58.433Z,30.87
2023-01-25T11:45:42.478Z,30.77
2023-01-25T11:48:27.355Z,30.83
2023-01-25T11:51:14.041Z,32.33
2023-01-25T11:54:18.677Z,33.57
2023-01-25T11:57:00.113Z,33.57
2023-01-25T11:59:45.425Z,33.57
2023-01-25T12:02:12.527Z,35.93
2023-01-25T12:05:21.110Z,35.30
2023-01-25T12:08:05.329Z,32.93
2023-01-25T12:10:35.089Z,33.33
2023-01-25T12:13:29.428Z,36.17
2023-01-25T12:16:09.996Z,35.37
2023-01-25T12:18:54.819Z,39.40
2023-01-25T12:21:41.408Z,38.03
2023-01-25T12:24:19.986Z,36.23
2023-01-25T12:27:05.218Z,35.90
2023-01-25T12:29:44.469Z,34.83
2023-01-25T12:32:19.036Z,39.40
2023-01-25T12:34:51.523Z,39.43
2023-01-25T12:37:37.425Z,33.27
2023-01-25T12:40:15.470Z,41.73
2023-01-25T12:42:52.160Z,35.23
2023-01-25T12:45:28.947Z,37.17
2023-01-25T12:48:10.221Z,37.60
2023-01-25T12:50:47.080Z,38.03
2023-01-25T12:53:17.887Z,41.17
2023-01-25T12:55:45.189Z,34.47
2023-01-25T12:58:37.319Z,38.20
2023-01-25T13:01:35.721Z,36.97
2023-01-25T13:04:35.397Z,37.27
2023-01-25T13:07:18.945Z,35.50
2023-01-25T13:09:57.989Z,40.17
2023-01-25T13:12:24.804Z,34.97
2023-01-25T13:14:51.742Z,36.43
2023-01-25T13:17:34.840Z,43.43
2023-01-25T13:20:05.317Z,41.00
2023-01-25T13:22:44.644Z,43.33
2023-01-25T13:25:17.066Z,42.70
2023-01-25T13:27:44.238Z,44.73
2023-01-25T13:30:19.904Z,47.97
2023-01-25T13:32:49.572Z,42.83
2023-01-25T13:35:29.742Z,45.00
2023-01-25T13:38:03.285Z,46.17
2023-01-25T13:40:36.487Z,48.83
2023-01-25T13:43:17.896Z,39.27
2023-01-25T13:45:47.198Z,40.83
2023-01-25T13:48:19.622Z,42.83
2023-01-25T13:50:50.974Z,43.77
2023-01-25T13:53:17.619Z,44.13
2023-01-25T13:55:46.878Z,42.13
2023-01-25T13:58:22.829Z,41.00
2023-01-25T14:00:57.348Z,47.23
2023-01-25T14:03:30.995Z,39.00
2023-01-25T14:06:02.488Z,40.17
2023-01-25T14:08:30.177Z,40.67
2023-01-25T14:10:57.929Z,44.73
2023-01-25T14:13:25.016Z,46.13
2023-01-25T14:15:57.393Z,40.50
2023-01-25T14:18:33.264Z,46.27
2023-01-25T14:21:10.636Z,39.83
2023-01-25T14:23:37.575Z,41.50
2023-01-25T14:26:04.681Z,40.40
2023-01-25T14:28:31.527Z,40.93
2023-01-25T14:31:01.292Z,44.87
2023-01-25T14:33:31.006Z,44.33
2023-01-25T14:36:24.341Z,76.57
2023-01-25T14:38:51.821Z,94.50
2023-01-25T14:41:51.690Z,59.77
2023-01-25T14:44:27.234Z,43.97
2023-01-25T14:47:31.201Z,47.43
2023-01-25T14:50:32.715Z,46.33
2023-01-25T14:53:20.724Z,43.30
2023-01-25T14:55:49.140Z,39.87
2023-01-25T14:58:23.907Z,42.30
2023-01-25T15:00:54.782Z,40.70
2023-01-25T15:03:22.573Z,47.43
2023-01-25T15:05:49.481Z,45.00
2023-01-25T15:08:27.687Z,41.93
2023-01-25T15:10:57.022Z,46.83
2023-01-25T15:13:26.786Z,51.17
2023-01-25T15:16:00.082Z,48.80
2023-01-25T15:18:45.581Z,43.83
2023-01-25T15:21:33.289Z,46.77
2023-01-25T15:24:05.017Z,43.47
2023-01-25T15:26:33.609Z,46.27
2023-01-25T15:29:05.531Z,49.47
2023-01-25T15:31:34.827Z,48.13
2023-01-25T15:34:02.393Z,47.63
2023-01-25T15:36:30.284Z,52.63
2023-01-25T15:38:57.399Z,52.60
2023-01-25T15:41:24.529Z,53.63
2023-01-25T15:43:52.047Z,46.03
2023-01-25T15:46:26.125Z,57.63
2023-01-25T15:48:53.410Z,59.27
2023-01-25T15:51:20.812Z,55.47
2023-01-25T15:53:47.892Z,51.00
2023-01-25T15:56:24.024Z,50.07
2023-01-25T15:58:53.229Z,54.37
2023-01-25T16:01:20.795Z,56.63
2023-01-25T16:03:47.629Z,52.30
2023-01-25T16:06:24.724Z,60.07
2023-01-25T16:08:51.601Z,58.37
2023-01-25T16:11:18.364Z,49.53
2023-01-25T16:13:45.017Z,59.40
2023-01-25T16:16:18.756Z,54.40
2023-01-25T16:18:46.061Z,58.87
2023-01-25T16:21:13.249Z,57.00
2023-01-25T16:23:40.350Z,54.17
2023-01-25T16:26:23.086Z,54.23
2023-01-25T16:28:49.976Z,53.70
2023-01-25T16:31:31.371Z,52.03
2023-01-25T16:34:00.112Z,48.93
2023-01-25T16:36:27.013Z,48.40
2023-01-25T16:38:53.808Z,50.17
2023-01-25T16:41:20.937Z,48.17
2023-01-25T16:43:48.739Z,63.43
2023-01-25T16:46:23.308Z,51.40
2023-01-25T16:48:52.345Z,54.33
2023-01-25T16:51:21.900Z,54.50
2023-01-25T16:53:50.194Z,55.13
2023-01-25T16:56:22.748Z,51.50
2023-01-25T16:58:50.630Z,57.43
2023-01-25T17:01:19.181Z,52.70
2023-01-25T17:03:46.614Z,56.73
2023-01-25T17:06:20.945Z,58.20
2023-01-25T17:08:48.420Z,59.30
2023-01-25T17:11:18.683Z,52.03
2023-01-25T17:13:50.283Z,50.77
2023-01-25T17:16:18.685Z,55.43
2023-01-25T17:18:46.241Z,55.33
2023-01-25T17:21:14.584Z,55.83
2023-01-25T17:23:42.539Z,61.27
2023-01-25T17:26:12.561Z,57.60
2023-01-25T17:28:39.699Z,66.33
2023-01-25T17:31:23.159Z,69.57
2023-01-25T17:33:50.524Z,57.70
2023-01-25T17:36:17.602Z,58.93
2023-01-25T17:38:44.720Z,62.70
2023-01-25T17:41:14.319Z,52.40
2023-01-25T17:43:41.561Z,61.87
2023-01-25T17:46:22.715Z,61.50
2023-01-25T17:48:49.817Z,59.27
2023-01-25T17:51:16.954Z,64.57
2023-01-25T17:53:44.404Z,61.03
2023-01-25T17:56:12.341Z,63.30
2023-01-25T17:58:40.004Z,55.57
2023-01-25T18:01:14.066Z,64.40
2023-01-25T18:03:41.713Z,62.87
2023-01-25T18:06:10.001Z,57.57
2023-01-25T18:08:41.857Z,64.40
2023-01-25T18:11:10.302Z,56.50
2023-01-25T18:13:41.471Z,70.13
2023-01-25T18:16:09.565Z,62.83
2023-01-25T18:18:41.650Z,61.33
2023-01-25T18:21:11.843Z,59.77
2023-01-25T18:23:40.618Z,62.57
2023-01-25T18:26:16.066Z,64.13
2023-01-25T18:28:42.809Z,56.53
2023-01-25T18:31:10.579Z,57.97
2023-01-25T18:33:38.315Z,55.83
2023-01-25T18:36:05.545Z,67.17
2023-01-25T18:38:32.863Z,61.70
2023-01-25T18:40:59.943Z,57.10
2023-01-25T18:43:28.074Z,68.53
2023-01-25T18:45:56.256Z,61.90
2023-01-25T18:48:30.526Z,70.87
2023-01-25T18:51:17.816Z,72.57
2023-01-25T18:53:47.266Z,69.73
2023-01-25T18:56:19.733Z,64.07
2023-01-25T18:58:47.020Z,57.53
2023-01-25T19:01:19.390Z,63.03
2023-01-25T19:03:46.871Z,64.73
2023-01-25T19:06:14.418Z,59.17
2023-01-25T19:08:43.973Z,49.37
2023-01-25T19:11:13.884Z,55.33
2023-01-25T19:13:41.793Z,50.90
2023-01-25T19:16:19.789Z,43.47
2023-01-25T19:18:49.917Z,43.90
2023-01-25T19:21:27.818Z,39.80
2023-01-25T19:23:55.750Z,39.63
2023-01-25T19:26:24.464Z,37.57
2023-01-25T19:28:53.489Z,37.93
2023-01-25T19:31:25.250Z,36.70
2023-01-25T19:34:03.479Z,31.93
2023-01-25T19:36:32.385Z,36.90
2023-01-25T19:38:59.542Z,27.93
2023-01-25T19:41:28.515Z,28.53
2023-01-25T19:43:57.342Z,27.73
2023-01-25T19:46:27.194Z,24.37
2023-01-25T19:48:54.994Z,24.30
2023-01-25T19:51:24.621Z,23.93
2023-01-25T19:53:59.861Z,26.63
2023-01-25T19:56:28.139Z,25.40
2023-01-25T19:58:55.324Z,31.73
2023-01-25T20:01:24.102Z,25.60
2023-01-25T20:03:51.742Z,24.57
2023-01-25T20:06:20.246Z,28.10
2023-01-25T20:08:47.954Z,25.53
2023-01-25T20:11:15.075Z,29.93
2023-01-25T20:13:42.544Z,34.63
2023-01-25T20:16:10.478Z,37.53
2023-01-25T20:18:37.730Z,33.23
2023-01-25T20:21:07.879Z,32.07
2023-01-25T20:23:36.759Z,29.77
2023-01-25T20:26:05.055Z,28.27
2023-01-25T20:28:36.394Z,27.77
2023-01-25T20:31:04.453Z,29.57
2023-01-25T20:33:35.426Z,31.87
2023-01-25T20:36:05.080Z,28.50
2023-01-25T20:38:33.570Z,28.37
2023-01-25T20:41:05.219Z,28.87
2023-01-25T20:43:32.536Z,27.43
2023-01-25T20:46:00.174Z,29.03
2023-01-25T20:48:28.198Z,26.63
2023-01-25T20:51:02.834Z,28.77
2023-01-25T20:53:30.223Z,27.23
2023-01-25T20:56:00.039Z,29.63
2023-01-25T20:58:27.556Z,28.03
2023-01-25T21:00:55.255Z,34.37
2023-01-25T21:03:23.096Z,35.67
2023-01-25T21:05:54.494Z,34.47
2023-01-25T21:08:22.197Z,32.53
2023-01-25T21:10:54.157Z,33.93
2023-01-25T21:13:21.564Z,34.60
2023-01-25T21:16:07.688Z,33.47
2023-01-25T21:18:35.736Z,31.07
2023-01-25T21:21:16.962Z,31.70
2023-01-25T21:23:45.592Z,30.43
2023-01-25T21:26:18.858Z,31.80
2023-01-25T21:28:46.520Z,30.43
2023-01-25T21:31:15.841Z,32.83
2023-01-25T21:33:43.479Z,29.57
2023-01-25T21:36:14.258Z,28.90
2023-01-25T21:38:54.322Z,31.17
2023-01-25T21:41:29.763Z,25.17
2023-01-25T21:44:17.072Z,25.80
2023-01-25T21:47:12.458Z,27.60
2023-01-25T21:49:51.867Z,23.93
2023-01-25T21:52:19.016Z,26.43
2023-01-25T21:54:46.107Z,28.10
2023-01-25T21:57:13.209Z,28.03
2023-01-25T21:59:40.858Z,30.40
2023-01-25T22:02:11.364Z,26.27
2023-01-25T22:04:38.632Z,29.50
2023-01-25T22:07:06.878Z,32.93
2023-01-25T22:09:33.978Z,28.97
2023-01-25T22:12:01.867Z,26.07
2023-01-25T22:14:29.214Z,27.70
2023-01-25T22:16:56.327Z,24.27
2023-01-25T22:19:23.145Z,26.40
2023-01-25T22:21:50.261Z,27.90
2023-01-25T22:24:17.141Z,26.77
2023-01-25T22:27:32.474Z,29.47
2023-01-25T22:29:59.573Z,26.60
2023-01-25T22:32:26.631Z,31.00
2023-01-25T22:34:53.379Z,30.30
2023-01-25T22:37:20.076Z,29.60
2023-01-25T22:39:48.204Z,26.50
2023-01-25T22:42:15.264Z,28.07
2023-01-25T22:44:42.365Z,27.20
2023-01-25T22:47:09.466Z,31.43
2023-01-25T22:49:36.116Z,36.07
2023-01-25T22:52:03.296Z,32.37
2023-01-25T22:54:30.342Z,33.37
2023-01-25T22:56:56.999Z,35.70
2023-01-25T22:59:24.107Z,39.77
2023-01-25T23:01:50.773Z,48.93
2023-01-25T23:04:17.945Z,44.67
2023-01-25T23:06:44.623Z,45.33
2023-01-25T23:09:11.697Z,38.47
2023-01-25T23:11:38.777Z,43.77
2023-01-25T23:14:25.439Z,50.07
2023-01-25T23:16:52.509Z,46.27
2023-01-25T23:19:19.583Z,42.90
2023-01-25T23:21:46.695Z,41.37
2023-01-25T23:24:13.924Z,48.23
2023-01-25T23:26:46.056Z,57.33
2023-01-25T23:29:13.418Z,54.00
2023-01-25T23:31:40.232Z,64.60
2023-01-25T23:34:07.409Z,59.50
2023-01-25T23:36:36.073Z,57.97
2023-01-25T23:39:03.189Z,64.97
2023-01-25T23:41:30.563Z,59.17
2023-01-25T23:43:58.095Z,67.90
2023-01-25T23:46:25.381Z,60.93
2023-01-25T23:48:52.648Z,69.37
2023-01-25T23:51:19.986Z,68.90
2023-01-25T23:53:47.424Z,66.63
2023-01-25T23:56:17.219Z,69.63
2023-01-25T23:58:44.584Z,73.13
